MDW weather

Chicago Midway International Airport
Chicago, Illinois, United States

Public forecast

Using degrees Fahrenheit for public forecast. Weather courtesy of forecast.io.

METAR (pilot weather report)

Retrieved 2017/03/29 08:53 UTC (20 minutes ago):

KMDW 290853Z 04007KT 1 1/4SM BR OVC004 02/02 A3023

TAF (pilot weather forecast)

Retrieved 2017/03/29 06:22 UTC (3 hours ago):

TAF KMDW 290520Z 2906/3006 06006KT 4SM BR BKN005 OVC010 FM290800 06006KT 1SM BR OVC003 FM291500 07013KT P6SM FEW005 BKN120 FM292100 07014G22KT P6SM SCT060 BKN100 FM300100 07010KT P6SM SCT030 OVC060